createdAt,value
2022-12-18T00:02:19.364Z,101128.44
2022-12-18T00:04:47.509Z,101130.13
2022-12-18T00:07:15.635Z,101127.47
2022-12-18T00:09:43.366Z,101121.41
2022-12-18T00:14:43.632Z,101127.41
2022-12-18T00:17:11.818Z,101124.91
2022-12-18T00:19:39.719Z,101122.38
2022-12-18T00:22:08.284Z,101118.91
2022-12-18T00:24:36.016Z,101124.16
2022-12-18T00:27:03.853Z,101125.91
2022-12-18T00:29:32.553Z,101123.38
2022-12-18T00:32:01.937Z,101119.94
2022-12-18T00:34:29.892Z,101124.31
2022-12-18T00:36:57.562Z,101128.66
2022-12-18T00:39:25.404Z,101133.03
2022-12-18T00:42:13.139Z,101133.09
2022-12-18T00:44:41.126Z,101134.84
2022-12-18T00:47:08.846Z,101133.97
2022-12-18T00:49:37.130Z,101131.34
2022-12-18T00:52:05.017Z,101134.78
2022-12-18T00:54:33.596Z,101138.19
2022-12-18T00:57:01.423Z,101139.06
2022-12-18T00:59:29.438Z,101145.09
2022-12-18T01:01:57.279Z,101134.75
2022-12-18T01:04:25.551Z,101139.06
2022-12-18T01:06:53.602Z,101142.53
2022-12-18T01:09:21.328Z,101133.06
2022-12-18T01:11:49.083Z,101135.63
2022-12-18T01:14:16.910Z,101134.78
2022-12-18T01:16:44.655Z,101123.53
2022-12-18T01:19:13.498Z,101126.13
2022-12-18T01:21:41.493Z,101123.56
2022-12-18T01:24:09.361Z,101128.75
2022-12-18T01:26:37.463Z,101131.31
2022-12-18T01:29:05.265Z,101139.09
2022-12-18T01:31:33.382Z,101138.19
2022-12-18T01:34:01.408Z,101147.72
2022-12-18T01:36:29.180Z,101139.09
2022-12-18T01:38:56.961Z,101138.22
2022-12-18T01:41:24.699Z,101141.69
2022-12-18T01:43:52.456Z,101133.94
2022-12-18T01:46:20.245Z,101143.44
2022-12-18T01:48:47.975Z,101145.16
2022-12-18T01:51:15.755Z,101139.94
2022-12-18T01:53:43.498Z,101139.91
2022-12-18T01:56:12.206Z,101139.03
2022-12-18T01:58:40.200Z,101131.25
2022-12-18T02:01:08.102Z,101124.34
2022-12-18T02:03:36.077Z,101117.47
2022-12-18T02:06:03.983Z,101116.63
2022-12-18T02:08:32.037Z,101120.09
2022-12-18T02:11:01.366Z,101115.81
2022-12-18T02:13:29.133Z,101127.03
2022-12-18T02:15:56.871Z,101118.41
2022-12-18T02:18:24.636Z,101122.69
2022-12-18T02:20:52.811Z,101115.78
2022-12-18T02:23:20.804Z,101127.88
2022-12-18T02:25:48.549Z,101116.63
2022-12-18T02:28:16.347Z,101110.59
2022-12-18T02:30:44.227Z,101114.91
2022-12-18T02:33:12.396Z,101110.59
2022-12-18T02:35:40.221Z,101114.91
2022-12-18T02:38:07.989Z,101119.25
2022-12-18T02:40:35.771Z,101116.69
2022-12-18T02:43:03.619Z,101108.06
2022-12-18T02:45:31.391Z,101108.91
2022-12-18T02:47:59.470Z,101110.63
2022-12-18T02:50:27.256Z,101110.63
2022-12-18T02:52:54.996Z,101110.63
2022-12-18T02:55:23.179Z,101106.31
2022-12-18T02:57:51.340Z,101107.16
2022-12-18T03:00:19.017Z,101127.84
2022-12-18T03:02:47.507Z,101115.78
2022-12-18T03:05:15.406Z,101110.63
2022-12-18T03:07:43.213Z,101114.97
2022-12-18T03:10:11.391Z,101108.13
2022-12-18T03:12:39.252Z,101113.31
2022-12-18T03:15:07.072Z,101109.84
2022-12-18T03:17:34.782Z,101108.16
2022-12-18T03:20:02.650Z,101106.44
2022-12-18T03:22:30.722Z,101103.88
2022-12-18T03:24:58.695Z,101104.78
2022-12-18T03:27:26.476Z,101100.47
2022-12-18T03:29:54.222Z,101103.06
2022-12-18T03:32:21.991Z,101097.97
2022-12-18T03:34:50.160Z,101105.84
2022-12-18T03:37:19.358Z,101105.91
2022-12-18T03:39:47.091Z,101103.34
2022-12-18T03:42:14.883Z,101092.97
2022-12-18T03:44:42.646Z,101090.38
2022-12-18T03:47:10.363Z,101091.19
2022-12-18T03:49:38.099Z,101080.72
2022-12-18T03:52:05.866Z,101082.34
2022-12-18T03:54:33.568Z,101087.44
2022-12-18T03:57:01.383Z,101087.34
2022-12-18T03:59:29.845Z,101085.50
2022-12-18T04:01:59.150Z,101091.53
2022-12-18T04:04:26.938Z,101098.41
2022-12-18T04:06:54.605Z,101112.16
2022-12-18T04:09:22.265Z,101115.56
2022-12-18T04:11:50.335Z,101114.69
2022-12-18T04:14:18.685Z,101103.47
2022-12-18T04:16:46.651Z,101101.75
2022-12-18T04:19:14.431Z,101106.16
2022-12-18T04:21:42.566Z,101107.94
2022-12-18T04:24:10.900Z,101108.00
2022-12-18T04:26:39.530Z,101095.94
2022-12-18T04:29:07.173Z,101096.78
2022-12-18T04:31:34.929Z,101098.50
2022-12-18T04:34:02.840Z,101096.81
2022-12-18T04:36:30.878Z,101097.66
2022-12-18T04:38:58.608Z,101097.69
2022-12-18T04:41:26.292Z,101095.97
2022-12-18T04:43:54.268Z,101090.84
2022-12-18T04:46:22.015Z,101096.03
2022-12-18T04:48:50.117Z,101092.63
2022-12-18T04:51:19.890Z,101086.66
2022-12-18T04:53:52.406Z,101090.09
2022-12-18T04:56:20.049Z,101091.81
2022-12-18T04:58:47.718Z,101092.69
2022-12-18T05:01:15.757Z,101093.53
2022-12-18T05:03:44.207Z,101087.47
2022-12-18T05:06:12.670Z,101095.22
2022-12-18T05:08:40.408Z,101093.47
2022-12-18T05:11:08.886Z,101087.44
2022-12-18T05:13:37.162Z,101077.91
2022-12-18T05:16:05.372Z,101083.97
2022-12-18T05:18:33.107Z,101079.66
2022-12-18T05:21:00.766Z,101077.91
2022-12-18T05:23:28.520Z,101073.59
2022-12-18T05:25:56.565Z,101063.28
2022-12-18T05:28:26.199Z,101063.28
2022-12-18T05:30:53.999Z,101061.56
2022-12-18T05:33:21.703Z,101064.13
2022-12-18T05:35:49.433Z,101052.94
2022-12-18T05:38:17.190Z,101046.03
2022-12-18T05:40:45.585Z,101049.50
2022-12-18T05:43:16.605Z,101044.31
2022-12-18T05:45:48.592Z,101052.09
2022-12-18T05:48:16.307Z,101052.94
2022-12-18T05:50:44.359Z,101049.50
2022-12-18T05:53:12.858Z,101052.94
2022-12-18T05:55:40.557Z,101052.03
2022-12-18T05:58:08.249Z,101056.41
2022-12-18T06:00:36.030Z,101060.69
2022-12-18T06:03:04.242Z,101063.31
2022-12-18T06:05:32.263Z,101073.66
2022-12-18T06:07:59.992Z,101082.31
2022-12-18T06:10:27.633Z,101084.03
2022-12-18T06:12:55.741Z,101083.22
2022-12-18T06:15:23.812Z,101080.63
2022-12-18T06:17:51.632Z,101091.03
2022-12-18T06:20:19.359Z,101091.06
2022-12-18T06:22:47.086Z,101095.38
2022-12-18T06:25:14.755Z,101107.50
2022-12-18T06:27:42.878Z,101109.22
2022-12-18T06:30:11.079Z,101105.78
2022-12-18T06:32:38.872Z,101109.28
2022-12-18T06:35:06.966Z,101108.38
2022-12-18T06:37:34.692Z,101098.91
2022-12-18T06:40:03.184Z,101095.44
2022-12-18T06:42:30.849Z,101098.91
2022-12-18T06:44:58.655Z,101096.28
2022-12-18T06:47:26.345Z,101100.59
2022-12-18T06:49:53.981Z,101105.78
2022-12-18T06:52:21.780Z,101104.88
2022-12-18T06:54:49.463Z,101096.22
2022-12-18T06:57:19.001Z,101091.06
2022-12-18T06:59:46.753Z,101095.41
2022-12-18T07:02:15.432Z,101097.16
2022-12-18T07:04:43.515Z,101095.47
2022-12-18T07:07:11.618Z,101088.59
2022-12-18T07:09:39.307Z,101084.28
2022-12-18T07:12:07.974Z,101091.22
2022-12-18T07:14:35.772Z,101084.31
2022-12-18T07:17:03.890Z,101090.34
2022-12-18T07:19:31.676Z,101091.25
2022-12-18T07:22:00.087Z,101081.75
2022-12-18T07:24:27.825Z,101086.06
2022-12-18T07:26:55.548Z,101088.66
2022-12-18T07:29:23.880Z,101072.25
2022-12-18T07:31:51.733Z,101075.69
2022-12-18T07:34:19.506Z,101078.25
2022-12-18T07:36:47.303Z,101063.56
2022-12-18T07:39:15.087Z,101064.44
2022-12-18T07:41:47.701Z,101064.47
2022-12-18T07:44:15.526Z,101070.53
2022-12-18T07:46:43.347Z,101068.81
2022-12-18T07:49:11.140Z,101069.69
2022-12-18T07:51:39.102Z,101058.47
2022-12-18T07:54:07.321Z,101062.78
2022-12-18T07:56:35.027Z,101056.78
2022-12-18T07:59:02.779Z,101051.63
2022-12-18T08:01:30.615Z,101057.69
2022-12-18T08:03:58.805Z,101064.63
2022-12-18T08:06:27.348Z,101066.38
2022-12-18T08:08:55.216Z,101069.88
2022-12-18T08:11:22.942Z,101061.25
2022-12-18T08:13:50.737Z,101057.78
2022-12-18T08:16:18.501Z,101061.28
2022-12-18T08:18:46.869Z,101050.03
2022-12-18T08:21:14.918Z,101048.31
2022-12-18T08:23:43.471Z,101048.28
2022-12-18T08:26:11.966Z,101047.41
2022-12-18T08:28:39.863Z,101035.28
2022-12-18T08:31:08.150Z,101032.63
2022-12-18T08:33:36.205Z,101020.44
2022-12-18T08:36:04.117Z,101009.13
2022-12-18T08:38:31.766Z,101011.63
2022-12-18T08:40:59.543Z,101008.91
2022-12-18T08:43:44.860Z,100998.41
2022-12-18T08:46:17.405Z,100980.91
2022-12-18T08:48:45.370Z,100977.28
2022-12-18T08:51:13.396Z,100973.72
2022-12-18T08:53:41.436Z,100966.66
2022-12-18T08:56:09.747Z,100960.47
2022-12-18T08:58:37.797Z,100963.00
2022-12-18T09:01:05.514Z,100962.00
2022-12-18T09:03:33.823Z,100961.13
2022-12-18T09:06:02.016Z,100955.84
2022-12-18T09:08:30.599Z,100967.06
2022-12-18T09:10:58.552Z,100966.09
2022-12-18T09:13:26.492Z,100984.25
2022-12-18T09:15:54.285Z,100973.63
2022-12-18T09:18:22.053Z,100983.84
2022-12-18T09:20:51.803Z,100975.75
2022-12-18T09:23:19.932Z,100980.56
2022-12-18T09:25:47.789Z,100968.75
2022-12-18T09:28:15.755Z,100964.84
2022-12-18T09:30:44.091Z,100943.34
2022-12-18T09:33:12.677Z,100943.75
2022-12-18T09:35:41.131Z,100931.16
2022-12-18T09:38:09.939Z,100937.84
2022-12-18T09:40:37.896Z,100942.81
2022-12-18T09:43:08.268Z,100947.75
2022-12-18T09:45:37.058Z,100949.25
2022-12-18T09:48:06.504Z,100943.66
2022-12-18T09:50:34.500Z,100926.56
2022-12-18T09:53:03.270Z,100927.69
2022-12-18T09:55:36.924Z,100919.31
2022-12-18T09:58:06.221Z,100916.88
2022-12-18T10:00:35.822Z,100914.44
2022-12-18T10:03:04.028Z,100917.31
2022-12-18T10:05:31.946Z,100916.69
2022-12-18T10:07:59.887Z,100918.66
2022-12-18T10:10:28.343Z,100918.09
2022-12-18T10:13:04.143Z,100928.72
2022-12-18T10:15:32.725Z,100922.94
2022-12-18T10:18:00.470Z,100919.97
2022-12-18T10:20:28.684Z,100909.19
2022-12-18T10:22:56.909Z,100902.22
2022-12-18T10:25:24.763Z,100893.53
2022-12-18T10:27:52.805Z,100880.38
2022-12-18T10:30:20.752Z,100875.91
2022-12-18T10:32:49.130Z,100879.16
2022-12-18T10:35:17.087Z,100869.50
2022-12-18T10:37:45.120Z,100881.78
2022-12-18T10:40:18.277Z,100886.25
2022-12-18T10:42:49.968Z,100878.38
2022-12-18T10:45:18.884Z,100862.72
2022-12-18T10:47:46.671Z,100848.66
2022-12-18T10:50:14.661Z,100838.94
2022-12-18T10:52:45.184Z,100826.53
2022-12-18T10:55:15.440Z,100830.78
2022-12-18T10:57:43.542Z,100820.09
2022-12-18T11:00:12.067Z,100826.09
2022-12-18T11:02:40.267Z,100823.44
2022-12-18T11:05:08.289Z,100823.44
2022-12-18T11:07:36.163Z,100828.53
2022-12-18T11:10:04.049Z,100820.28
2022-12-18T11:12:31.979Z,100819.16
2022-12-18T11:15:01.213Z,100821.56
2022-12-18T11:17:29.168Z,100811.59
2022-12-18T11:19:57.511Z,100807.00
2022-12-18T11:22:25.852Z,100805.19
2022-12-18T11:25:29.678Z,100807.88
2022-12-18T11:27:41.896Z,100800.91
2022-12-18T11:30:10.296Z,100802.56
2022-12-18T11:32:38.562Z,100802.44
2022-12-18T11:35:06.939Z,100782.28
2022-12-18T11:37:34.874Z,100780.63
2022-12-18T11:40:03.153Z,100782.34
2022-12-18T11:42:31.274Z,100773.53
2022-12-18T11:44:59.791Z,100778.88
2022-12-18T11:47:29.780Z,100783.31
2022-12-18T11:49:58.397Z,100782.41
2022-12-18T11:52:26.470Z,100778.88
2022-12-18T11:54:55.161Z,100773.78
2022-12-18T11:57:24.802Z,100769.53
2022-12-18T11:59:52.725Z,100755.56
2022-12-18T12:02:20.807Z,100746.81
2022-12-18T12:04:49.168Z,100750.34
2022-12-18T12:07:17.710Z,100731.13
2022-12-18T12:09:45.841Z,100733.78
2022-12-18T12:12:14.690Z,100732.06
2022-12-18T12:14:42.741Z,100734.63
2022-12-18T12:17:10.659Z,100733.81
2022-12-18T12:19:38.901Z,100721.53
2022-12-18T12:22:06.863Z,100728.56
2022-12-18T12:24:34.862Z,100726.66
2022-12-18T12:27:02.846Z,100723.13
2022-12-18T12:29:30.954Z,100728.31
2022-12-18T12:31:59.476Z,100717.75
2022-12-18T12:34:27.954Z,100712.47
2022-12-18T12:36:55.858Z,100713.38
2022-12-18T12:39:23.872Z,100720.47
2022-12-18T12:42:09.496Z,100712.59
2022-12-18T12:44:37.818Z,100705.59
2022-12-18T12:47:06.080Z,100706.53
2022-12-18T12:49:40.321Z,100701.09
2022-12-18T12:52:08.747Z,100692.25
2022-12-18T12:54:37.131Z,100687.88
2022-12-18T12:57:05.155Z,100677.34
2022-12-18T12:59:33.068Z,100672.13
2022-12-18T13:02:01.611Z,100670.34
2022-12-18T13:04:30.313Z,100677.34
2022-12-18T13:06:58.883Z,100673.84
2022-12-18T13:09:27.978Z,100676.47
2022-12-18T13:12:13.958Z,100673.97
2022-12-18T13:14:42.020Z,100674.94
2022-12-18T13:17:10.422Z,100671.50
2022-12-18T13:19:38.864Z,100679.50
2022-12-18T13:22:07.058Z,100673.28
2022-12-18T13:24:35.649Z,100677.56
2022-12-18T13:27:04.355Z,100675.72
2022-12-18T13:29:33.313Z,100673.97
2022-12-18T13:32:01.799Z,100668.69
2022-12-18T13:34:31.064Z,100668.69
2022-12-18T13:37:00.885Z,100673.84
2022-12-18T13:39:34.293Z,100676.22
2022-12-18T13:42:03.645Z,100665.56
2022-12-18T13:44:35.886Z,100661.22
2022-12-18T13:47:06.785Z,100666.47
2022-12-18T13:49:34.716Z,100663.78
2022-12-18T13:52:03.084Z,100669.00
2022-12-18T13:54:31.468Z,100664.72
2022-12-18T13:56:59.411Z,100665.69
2022-12-18T13:59:27.458Z,100671.00
2022-12-18T14:01:55.998Z,100673.53
2022-12-18T14:04:24.785Z,100663.75
2022-12-18T14:06:53.610Z,100676.81
2022-12-18T14:09:21.798Z,100674.19
2022-12-18T14:11:49.905Z,100679.53
2022-12-18T14:14:17.839Z,100678.72
2022-12-18T14:16:46.071Z,100680.56
2022-12-18T14:19:15.861Z,100671.94
2022-12-18T14:21:43.715Z,100672.06
2022-12-18T14:24:11.682Z,100665.09
2022-12-18T14:26:39.779Z,100659.94
2022-12-18T14:29:09.836Z,100659.13
2022-12-18T14:31:38.266Z,100659.19
2022-12-18T14:34:06.185Z,100654.06
2022-12-18T14:36:34.089Z,100654.97
2022-12-18T14:39:02.029Z,100651.47
2022-12-18T14:41:30.515Z,100640.91
2022-12-18T14:43:59.030Z,100643.53
2022-12-18T14:46:27.107Z,100632.13
2022-12-18T14:48:55.014Z,100629.59
2022-12-18T14:51:22.860Z,100630.44
2022-12-18T14:53:54.759Z,100605.03
2022-12-18T14:56:22.959Z,100606.13
2022-12-18T14:58:51.130Z,100611.59
2022-12-18T15:01:19.180Z,100603.00
2022-12-18T15:03:47.258Z,100594.41
2022-12-18T15:06:15.567Z,100587.63
2022-12-18T15:08:45.269Z,100585.19
2022-12-18T15:11:13.327Z,100575.81
2022-12-18T15:13:42.380Z,100574.13
2022-12-18T15:16:10.634Z,100569.00
2022-12-18T15:18:38.860Z,100570.78
2022-12-18T15:21:07.178Z,100569.81
2022-12-18T15:23:35.346Z,100563.72
2022-12-18T15:26:04.422Z,100566.28
2022-12-18T15:28:32.950Z,100566.16
2022-12-18T15:31:01.105Z,100558.34
2022-12-18T15:33:29.973Z,100562.81
2022-12-18T15:35:58.397Z,100564.56
2022-12-18T15:38:26.600Z,100552.38
2022-12-18T15:40:54.533Z,100550.69
2022-12-18T15:43:36.773Z,100547.22
2022-12-18T15:46:05.011Z,100540.28
2022-12-18T15:48:32.817Z,100537.88
2022-12-18T15:51:00.958Z,100539.91
2022-12-18T15:53:29.146Z,100540.09
2022-12-18T15:56:14.827Z,100541.13
2022-12-18T15:58:43.098Z,100542.88
2022-12-18T16:01:11.086Z,100535.00
2022-12-18T16:03:39.652Z,100542.03
2022-12-18T16:06:07.941Z,100538.63
2022-12-18T16:08:36.856Z,100535.16
2022-12-18T16:11:05.231Z,100532.53
2022-12-18T16:13:33.004Z,100543.88
2022-12-18T16:16:00.918Z,100535.13
2022-12-18T16:18:29.024Z,100535.06
2022-12-18T16:20:57.429Z,100530.66
2022-12-18T16:23:25.652Z,100531.63
2022-12-18T16:25:53.897Z,100525.56
2022-12-18T16:28:21.921Z,100527.38
2022-12-18T16:30:49.791Z,100528.34
2022-12-18T16:33:18.472Z,100530.28
2022-12-18T16:35:46.326Z,100544.47
2022-12-18T16:38:14.587Z,100546.28
2022-12-18T16:41:03.603Z,100542.06
2022-12-18T16:43:31.771Z,100537.81
2022-12-18T16:45:59.963Z,100538.78
2022-12-18T16:48:28.123Z,100528.34
2022-12-18T16:50:57.302Z,100530.28
2022-12-18T16:53:25.319Z,100534.75
2022-12-18T16:55:53.345Z,100537.41
2022-12-18T16:58:22.579Z,100554.97
2022-12-18T17:00:50.414Z,100557.53
2022-12-18T17:03:18.484Z,100547.88
2022-12-18T17:05:51.497Z,100542.63
2022-12-18T17:08:21.423Z,100539.13
2022-12-18T17:10:49.630Z,100545.31
2022-12-18T17:13:20.254Z,100543.59
2022-12-18T17:15:52.272Z,100555.03
2022-12-18T17:18:20.142Z,100542.84
2022-12-18T17:20:48.373Z,100537.59
2022-12-18T17:23:16.473Z,100535.75
2022-12-18T17:25:44.350Z,100529.66
2022-12-18T17:28:12.470Z,100530.50
2022-12-18T17:30:40.430Z,100530.50
2022-12-18T17:33:08.815Z,100522.69
2022-12-18T17:35:37.462Z,100526.22
2022-12-18T17:38:05.903Z,100521.88
2022-12-18T17:40:34.235Z,100526.38
2022-12-18T17:43:02.129Z,100512.34
2022-12-18T17:45:30.553Z,100499.16
2022-12-18T17:48:00.058Z,100493.06
2022-12-18T17:50:28.023Z,100500.94
2022-12-18T17:52:56.033Z,100486.88
2022-12-18T17:55:23.804Z,100485.19
2022-12-18T17:57:52.353Z,100492.22
2022-12-18T18:00:20.647Z,100494.06
2022-12-18T18:02:48.980Z,100501.91
2022-12-18T18:05:16.982Z,100493.16
2022-12-18T18:07:44.904Z,100502.81
2022-12-18T18:10:13.168Z,100487.84
2022-12-18T18:13:09.739Z,100497.31
2022-12-18T18:15:39.702Z,100492.81
2022-12-18T18:18:07.663Z,100496.25
2022-12-18T18:20:37.061Z,100493.50
2022-12-18T18:23:05.498Z,100495.16
2022-12-18T18:25:33.551Z,100482.06
2022-12-18T18:28:01.702Z,100482.94
2022-12-18T18:30:30.542Z,100499.53
2022-12-18T18:32:59.300Z,100491.75
2022-12-18T18:35:52.998Z,100490.88
2022-12-18T18:38:15.643Z,100510.19
2022-12-18T18:40:43.545Z,100489.16
2022-12-18T18:43:11.818Z,100504.97
2022-12-18T18:45:39.707Z,100511.19
2022-12-18T18:48:09.202Z,100515.66
2022-12-18T18:50:37.171Z,100519.22
2022-12-18T18:53:05.198Z,100519.22
2022-12-18T18:55:33.812Z,100522.00
2022-12-18T18:58:01.735Z,100509.84
2022-12-18T19:00:31.580Z,100510.88
2022-12-18T19:03:00.938Z,100517.94
2022-12-18T19:05:29.499Z,100519.78
2022-12-18T19:07:57.511Z,100515.53
2022-12-18T19:10:25.438Z,100526.09
2022-12-18T19:13:10.617Z,100532.38
2022-12-18T19:15:39.195Z,100530.78
2022-12-18T19:18:07.097Z,100512.50
2022-12-18T19:20:35.361Z,100520.44
2022-12-18T19:23:03.348Z,100527.44
2022-12-18T19:25:40.548Z,100523.00
2022-12-18T19:28:21.214Z,100517.75
2022-12-18T19:30:50.237Z,100530.06
2022-12-18T19:33:41.996Z,100523.97
2022-12-18T19:36:07.116Z,100524.88
2022-12-18T19:38:37.809Z,100525.69
2022-12-18T19:41:05.852Z,100525.63
2022-12-18T19:43:36.134Z,100523.00
2022-12-18T19:46:05.100Z,100527.50
2022-12-18T19:48:33.065Z,100538.13
2022-12-18T19:51:01.671Z,100541.66
2022-12-18T19:53:29.525Z,100533.00
2022-12-18T19:55:57.633Z,100529.53
2022-12-18T19:58:25.533Z,100511.28
2022-12-18T20:00:53.472Z,100521.00
2022-12-18T20:03:28.864Z,100503.56
2022-12-18T20:06:00.280Z,100517.63
2022-12-18T20:08:28.087Z,100522.91
2022-12-18T20:10:56.045Z,100511.44
2022-12-18T20:13:25.380Z,100517.53
2022-12-18T20:15:55.397Z,100528.03
2022-12-18T20:18:23.254Z,100528.03
2022-12-18T20:20:51.516Z,100519.28
2022-12-18T20:23:20.230Z,100506.94
2022-12-18T20:25:48.819Z,100519.03
2022-12-18T20:28:17.333Z,100522.50
2022-12-18T20:30:45.239Z,100510.16
2022-12-18T20:33:13.237Z,100522.38
2022-12-18T20:35:41.350Z,100533.63
2022-12-18T20:38:09.909Z,100526.53
2022-12-18T20:40:39.098Z,100513.38
2022-12-18T20:43:07.440Z,100511.53
2022-12-18T20:45:35.227Z,100501.06
2022-12-18T20:48:04.342Z,100512.41
2022-12-18T20:50:32.892Z,100507.03
2022-12-18T20:53:00.760Z,100522.69
2022-12-18T20:55:28.682Z,100524.22
2022-12-18T20:57:56.480Z,100520.56
2022-12-18T21:00:24.261Z,100521.25
2022-12-18T21:02:52.941Z,100529.88
2022-12-18T21:05:20.885Z,100526.34
2022-12-18T21:07:48.985Z,100528.84
2022-12-18T21:10:16.794Z,100520.06
2022-12-18T21:12:48.264Z,100521.72
2022-12-18T21:15:25.314Z,100524.28
2022-12-18T21:17:56.513Z,100532.13
2022-12-18T21:20:24.713Z,100513.72
2022-12-18T21:22:52.668Z,100522.44
2022-12-18T21:25:24.084Z,100519.78
2022-12-18T21:27:51.884Z,100518.94
2022-12-18T21:30:19.792Z,100524.25
2022-12-18T21:32:48.114Z,100529.53
2022-12-18T21:35:16.091Z,100526.97
2022-12-18T21:37:45.393Z,100524.47
2022-12-18T21:40:13.349Z,100524.59
2022-12-18T21:42:58.468Z,100526.38
2022-12-18T21:45:26.630Z,100531.81
2022-12-18T21:47:55.060Z,100519.63
2022-12-18T21:50:22.992Z,100517.00
2022-12-18T21:52:51.291Z,100521.31
2022-12-18T21:55:19.147Z,100520.28
2022-12-18T21:57:46.938Z,100517.50
2022-12-18T22:00:18.452Z,100515.47
2022-12-18T22:02:47.345Z,100495.09
2022-12-18T22:05:15.200Z,100496.69
2022-12-18T22:07:43.168Z,100493.84
2022-12-18T22:10:11.077Z,100490.16
2022-12-18T22:12:43.584Z,100484.84
2022-12-18T22:15:14.745Z,100494.44
2022-12-18T22:17:49.573Z,100496.09
2022-12-18T22:20:17.481Z,100479.34
2022-12-18T22:22:48.985Z,100484.44
2022-12-18T22:25:16.748Z,100477.22
2022-12-18T22:28:04.519Z,100478.81
2022-12-18T22:30:31.282Z,100480.41
2022-12-18T22:33:01.055Z,100482.13
2022-12-18T22:35:28.838Z,100473.31
2022-12-18T22:37:58.168Z,100465.41
2022-12-18T22:40:25.965Z,100470.81
2022-12-18T22:42:54.347Z,100466.63
2022-12-18T22:45:22.579Z,100464.09
2022-12-18T22:47:50.472Z,100467.63
2022-12-18T22:50:18.240Z,100463.34
2022-12-18T22:52:46.098Z,100466.09
2022-12-18T22:55:14.323Z,100467.97
2022-12-18T22:57:45.039Z,100466.34
2022-12-18T23:00:16.904Z,100466.41
2022-12-18T23:02:48.701Z,100463.78
2022-12-18T23:05:17.078Z,100457.72
2022-12-18T23:07:45.296Z,100465.66
2022-12-18T23:10:13.031Z,100458.63
2022-12-18T23:12:40.704Z,100460.34
2022-12-18T23:15:08.392Z,100452.53
2022-12-18T23:17:36.105Z,100445.59
2022-12-18T23:20:04.398Z,100445.84
2022-12-18T23:22:32.175Z,100442.47
2022-12-18T23:24:59.936Z,100441.72
2022-12-18T23:27:27.574Z,100441.06
2022-12-18T23:29:55.492Z,100438.56
2022-12-18T23:32:26.579Z,100437.91
2022-12-18T23:34:54.241Z,100424.84
2022-12-18T23:37:49.826Z,100416.19
2022-12-18T23:40:09.877Z,100407.50
2022-12-18T23:42:37.838Z,100411.13
2022-12-18T23:45:14.225Z,100417.28
2022-12-18T23:47:47.925Z,100415.56
2022-12-18T23:50:18.618Z,100413.00
2022-12-18T23:52:46.852Z,100410.31
2022-12-18T23:55:14.476Z,100415.50
2022-12-18T23:57:42.462Z,100408.44
